Ride Results

Wandoo 1 (12-06-2005)
Ride distance: 82.0 km

Outcomes - Wandoo 1 (12-06-2005)
Division No. of Entries Retired / DNE Completed Withdrawn Ineligible V/O Percentage Completed
HW 7 - 5 - - 2 71.43%
MW 8 - 7 1 - - 87.50%
LW 5 - 4 1 - - 80.00%
JN 2 - 2 - - - 100.00%
Totals 22 - 18 2 - 2 81.82%
Results - Wandoo 1 (12-06-2005)
No. Rider Horse Place Time Leg Speeds Total
Km/Hr
H/R bpm
Heavyweight
98 John Fry Bessona Tania 1 6:33:00 12.5, 12.4 12.52 35, 53, 57 (Avg:55)
97 Ced Fry Roxborough Paragon 2 7:03:00 12.5, 10.6 11.63 46, 37, 43 (Avg:40)
87 Jan McPherson Pinfeather 2 7:03:00 11.7, 11.4 11.63 32, 37, 46 (Avg:41)
84 Alwyn Torenbeek Queensland Mudmaps 2 7:03:00 11.7, 11.4 11.63 28, 38, 51 (Avg:44)
93 Scott Barker Hadji of Damascus 5 8:09:10 11.8, 8.3 10.06 35, 37, 42 (Avg:39)
90 Guy Jones Kohnray Gindie Lame L1 0:00:00 12.7 - 42, 49 (Avg:49)
82 Ursula Keenan Zambucca Lame L1 0:00:00 12.0 - 33, 39 (Avg:39)
Middleweight
94 Albie Knight Titanium 1 6:27:00 13.4, 11.7 12.71 30, 46, 41 (Avg:43)
86 Sally Genninges Arinya Park Nazzerin 2 6:33:00 13.0, 11.8 12.52 35, 39, 42 (Avg:40)
80 Celine Moulin Matta Mia Sid 3 6:56:00 12.0, 11.5 11.83 33, 44, 48 (Avg:46)
88 Ellie Hill Rebecca Joy 4 7:01:00 11.8, 11.4 11.69 32, 40, 50 (Avg:45)
79 Ian Mains Matta Mia Naddara 5 7:09:00 13.1, 9.7 11.47 31, 39, 44 (Avg:41)
77 Jayn James Talara Finian 6 9:21:00 10.4, 7.2 8.77 39, 45, 59 (Avg:52)
81 Trevor Copland Sergai 7 9:26:00 12.0, 6.3 8.69 31, 40, 44 (Avg:42)
96 Jayne Fry Rivalyn Shianne Withdrawn L2 0:00:00 - - 28, 31, 40 (Avg:35)
Lightweight
89 Stephen Longhurst Narmond Silver Gift 1 6:27:00 13.4, 11.7 12.71 32, 41, 53 (Avg:47)
91 Natarsha Steains Roxborough Jaffar 2 6:37:00 12.7, 11.9 12.39 43, 47, 49 (Avg:48)
95 Karen Hill Rivelyn Flicker 3 7:03:00 12.5, 10.6 11.63 29, 37, 40 (Avg:38)
92 Nicole Barker Saronet Phantom 4 8:09:00 11.8, 8.3 10.06 34, 44, 41 (Avg:42)
83 Bec Miller Midu Ariel Withdrawn L1 0:00:00 - - 49, 52 (Avg:52)
Junior
85 Kelsey Irvine Dalgangle 1 7:01:00 11.8, 11.4 11.69 34, 42, 49 (Avg:45)
78 Nichole James Xmas 2 9:21:00 10.4, 7.2 8.77 33, 39, 43 (Avg:41)